• Join FlightAware (Why Join?)
  • Login
  • US Flag 
03:41AM EDT


 

Airport Tracker/Info


-or-


 

Live Flight TrackerFlight Track Log ✈ N53NW ✈ 25-Aug-2013 ✈ KSTL - KPWK

Flight Track Log - Related Links

Times and Time Zones

All times are in EDT time to prevent confusion due to time zone crossing. See the N53NW flight status page for this flight to view local times or setup timezone preferences in your user account.

Time Position Orientation Groundspeed Altitude Reporting Facility
EDT Latitude Longitude Course Direction KTS MPH feet Rate Location/Type
11:15AM 38.7333 -90.3333 90° East 189 217 1,700  Level Gateway (St. Louis) TRACON
11:16AM 38.7333 -90.2833 90° East 217 250 3,400 2,340 Climbing Gateway (St. Louis) TRACON
11:17AM 38.8000 -90.2258 34° Northeast 244 281 6,700 2,580 Climbing Kansas City Center
11:18AM 38.8736 -90.2061 12° North 265 305 9,800 2,880 Climbing Kansas City Center
11:19AM 38.9486 -90.1861 12° North 272 313 12,600 2,520 Climbing Kansas City Center
11:20AM 39.0264 -90.1653 12° North 279 321 15,100 2,460 Climbing Kansas City Center
11:21AM 39.1217 -90.1406 11° North 287 330 17,800 2,460 Climbing Kansas City Center
11:22AM 39.2028 -90.1194 11° North 293 337 20,300 2,400 Climbing Kansas City Center
11:23AM 39.2828 -90.0978 12° North 294 338 22,800 1,260 Climbing Kansas City Center
11:24AM 39.3736 -90.0733 12° North 329 379 23,000 60 Climbing Kansas City Center
11:25AM 39.4697 -90.0481 11° North 354 407 23,000  Level Kansas City Center
11:26AM 39.5875 -90.0169 12° North 360 414 23,000  Level Kansas City Center
11:27AM 39.6858 -89.9897 12° North 362 417 23,000  Level Kansas City Center
11:28AM 39.7867 -89.9633 11° North 364 419 23,000  Level Kansas City Center
11:30AM 39.8858 -89.9361 12° North 365 420 23,000  Level Kansas City Center
11:31AM 39.9847 -89.9103 11° North 363 418 23,000  Level Kansas City Center
11:32AM 40.0819 -89.8836 12° North 360 414 23,000  Level Kansas City Center
11:33AM 40.1778 -89.8503 15° North 364 419 23,000  Level Kansas City Center
11:34AM 40.2803 -89.7706 31° Northeast 361 415 23,000  Level Kansas City Center
11:35AM 40.3642 -89.7006 32° Northeast 360 414 23,000  Level Kansas City Center
11:36AM 40.4475 -89.6289 33° Northeast 361 415 23,000  Level Kansas City Center
11:37AM 40.5311 -89.5567 33° Northeast 362 417 23,000 -780 Level Kansas City Center
11:38AM 40.6144 -89.4869 32° Northeast 361 415 21,500 -1,680 Descending Kansas City Center
11:39AM 40.7094 -89.4050 33° Northeast 348 400 19,600 -1,560 Descending Kansas City Center
11:40AM 40.8200 -89.3117 33° Northeast 342 394 17,600 -1,440 Descending Chicago Center
11:41AM 40.8986 -89.2442 33° Northeast 341 392 16,000 -1,560 Descending Chicago Center
11:42AM 40.9753 -89.1789 33° Northeast 333 383 14,400 -1,560 Descending Chicago Center
11:43AM 41.0489 -89.1136 34° Northeast 323 372 12,800 -1,740 Descending Chicago Center
11:44AM 41.1353 -89.0431 32° Northeast 312 359 10,900 -1,380 Descending Chicago Center
11:45AM 41.2133 -89.0014 22° Northeast 305 351 10,000 -480 Descending Chicago Center
11:46AM 41.2908 -88.9564 24° Northeast 304 350 10,000  Level Chicago Center
11:47AM 41.3650 -88.9097 25° Northeast 299 344 10,000  Level Chicago Center
11:48AM 41.4383 -88.8644 25° Northeast 294 338 10,000 -540 Level Chicago Center
11:50AM 41.4947 -88.7822 48° Northeast 303 349 9,000 -1,320 Descending Chicago Center
11:51AM 41.5597 -88.6892 47° Northeast 289 333 7,300 -1,500 Descending Chicago Center
11:52AM 41.6147 -88.6139 46° Northeast 286 329 6,000 -720 Descending Chicago Center
11:53AM 41.6756 -88.5483 39° Northeast 283 326 5,900 -840 Descending Chicago Center
11:54AM 41.7519 -88.5342 North 281 323 4,400 -960 Descending Chicago Center
11:55AM 41.8258 -88.5167 10° North 274 315 4,000 -240 Descending Chicago Center
11:56AM 41.9014 -88.4986 10° North 273 314 4,000  Level Chicago Center
11:57AM 41.9917 -88.4769 10° North 275 316 4,000  Level Chicago Center
11:58AM 42.0656 -88.4542 13° North 273 314 4,000  Level Chicago Center
11:59AM 42.1236 -88.3892 40° Northeast 280 322 4,000  Level Chicago Center
12:00PM 42.1744 -88.3094 49° Northeast 301 346 4,000  Level Chicago Center
12:01PM 42.2147 -88.2219 58° Northeast 279 321 4,000  Level Chicago Center
12:02PM 42.2558 -88.1311 59° Northeast 280 322 4,000 -300 Level Chicago Center
12:03PM 42.2792 -88.0458 70° East 252 290 3,400 -780 Descending Chicago Center
12:04PM 42.2431 -87.9697 123° Southeast 226 260 2,400 -600 Descending Chicago Center
12:05PM 42.1975 -87.9469 160° South 195 224 2,200 -240 Descending Chicago Center
12:06PM 42.1533 -87.9269 161° South 191 220 2,000 -660 Descending Chicago Center
12:07PM 42.1325 -87.9122 152° Southeast 118 136 900 -1,080 Descending Chicago Center